Time,TemperatureF,DewpointF,PressureIn,WindDirection,WindDirectionDegrees,WindSpeedMPH,WindSpeedGustMPH,Humidity,HourlyPrecipIn,Conditions,Clouds,dailyrainin,SoftwareType,DateUTC
2013-07-22 15:10:00,85.8,72.2,29.70,ENE,58,2.0,4.0,64,0.00,,,0.00,Wunderground v.1.15,2013-07-22 20:10:00,
2013-07-22 15:20:00,85.3,72.2,29.70,NNW,336,2.0,2.0,65,0.00,,,0.00,Wunderground v.1.15,2013-07-22 20:20:00,
2013-07-22 15:25:00,85.2,71.2,29.70,WSW,252,2.0,4.0,63,0.00,,,0.00,Wunderground v.1.15,2013-07-22 20:25:00,
2013-07-22 15:30:00,85.0,71.0,29.70,ENE,58,2.0,2.0,63,0.00,,,0.00,Wunderground v.1.15,2013-07-22 20:30:00,
2013-07-22 15:35:00,85.0,71.9,29.71,ENE,72,2.0,2.0,65,0.00,,,0.00,Wunderground v.1.15,2013-07-22 20:35:00,
2013-07-22 15:40:00,84.9,70.9,29.71,East,101,2.0,3.0,63,0.00,,,0.00,Wunderground v.1.15,2013-07-22 20:40:00,
2013-07-22 15:45:00,85.1,72.0,29.71,ESE,115,3.0,3.0,65,0.00,,,0.00,Wunderground v.1.15,2013-07-22 20:45:00,
2013-07-22 15:50:00,85.2,70.7,29.70,SSE,165,3.0,3.0,62,0.00,,,0.00,Wunderground v.1.15,2013-07-22 20:50:00,
2013-07-22 15:55:00,85.5,70.5,29.70,ENE,58,3.0,3.0,61,0.00,,,0.00,Wunderground v.1.15,2013-07-22 20:55:00,
2013-07-22 16:00:00,86.0,71.5,29.70,SW,236,3.0,4.0,62,0.00,,,0.00,Wunderground v.1.15,2013-07-22 21:00:00,
2013-07-22 16:10:00,86.1,70.6,29.70,SW,235,4.0,4.0,60,0.00,,,0.00,Wunderground v.1.15,2013-07-22 21:10:00,
2013-07-22 16:15:00,86.0,71.5,29.70,South,183,5.0,5.0,62,0.00,,,0.00,Wunderground v.1.15,2013-07-22 21:15:00,
2013-07-22 16:20:00,86.0,71.0,29.70,SSW,197,4.0,4.0,61,0.00,,,0.00,Wunderground v.1.15,2013-07-22 21:20:00,
2013-07-22 16:30:00,85.5,70.5,29.69,WSW,240,4.0,6.0,61,0.00,,,0.00,Wunderground v.1.15,2013-07-22 21:30:00,
2013-07-22 16:35:00,85.5,71.0,29.69,SW,225,4.0,6.0,62,0.00,,,0.00,Wunderground v.1.15,2013-07-22 21:35:00,
2013-07-22 16:40:00,85.6,71.6,29.68,ESE,110,4.0,4.0,63,0.00,,,0.00,Wunderground v.1.15,2013-07-22 21:40:00,
2013-07-22 16:45:00,85.5,71.5,29.68,ESE,105,3.0,4.0,63,0.00,,,0.00,Wunderground v.1.15,2013-07-22 21:45:00,
2013-07-22 16:55:00,85.8,71.7,29.68,ESE,121,3.0,4.0,63,0.00,,,0.00,Wunderground v.1.15,2013-07-22 21:55:00,
2013-07-22 17:04:00,85.8,71.3,29.68,West,264,4.0,11.0,62,0.00,,,0.00,Wunderground v.1.15,2013-07-22 22:04:00,
2013-07-22 17:09:00,86.1,71.6,29.68,South,184,3.0,3.0,62,0.00,,,0.00,Wunderground v.1.15,2013-07-22 22:09:00,
2013-07-22 17:14:00,85.8,70.8,29.69,SW,214,3.0,3.0,61,0.00,,,0.00,Wunderground v.1.15,2013-07-22 22:14:00,
2013-07-22 17:20:00,85.2,71.2,29.69,SW,221,3.0,6.0,63,0.00,,,0.00,Wunderground v.1.15,2013-07-22 22:20:00,
2013-07-22 17:30:00,85.0,71.0,29.69,SW,235,3.0,3.0,63,0.00,,,0.00,Wunderground v.1.15,2013-07-22 22:30:00,
2013-07-22 17:35:00,84.8,72.2,29.69,WSW,252,3.0,3.0,66,0.00,,,0.00,Wunderground v.1.15,2013-07-22 22:35:00,
2013-07-22 17:44:00,84.2,71.2,29.69,SSW,201,3.0,3.0,65,0.00,,,0.00,Wunderground v.1.15,2013-07-22 22:44:00,
2013-07-22 17:49:00,83.8,71.2,29.68,SW,219,4.0,4.0,66,0.00,,,0.00,Wunderground v.1.15,2013-07-22 22:49:00,
2013-07-22 17:54:00,83.5,70.9,29.69,SW,236,3.0,4.0,66,0.00,,,0.00,Wunderground v.1.15,2013-07-22 22:54:00,
2013-07-22 17:59:00,83.1,71.4,29.68,West,273,3.0,4.0,68,0.00,,,0.00,Wunderground v.1.15,2013-07-22 22:59:00,
2013-07-22 18:09:00,82.8,71.6,29.68,SSW,204,2.0,2.0,69,0.00,,,0.00,Wunderground v.1.15,2013-07-22 23:09:00,
2013-07-22 18:14:00,82.5,71.3,29.68,SW,232,1.0,3.0,69,0.00,,,0.00,Wunderground v.1.15,2013-07-22 23:14:00,
2013-07-22 18:24:00,82.0,71.7,29.68,SSW,207,1.0,1.0,71,0.00,,,0.00,Wunderground v.1.15,2013-07-22 23:24:00,
2013-07-22 18:29:00,81.7,71.4,29.68,SE,131,0.0,0.0,71,0.00,,,0.00,Wunderground v.1.15,2013-07-22 23:29:00,
2013-07-22 18:34:00,81.5,71.6,29.68,SW,224,0.0,0.0,72,0.00,,,0.00,Wunderground v.1.15,2013-07-22 23:34:00,
2013-07-22 18:39:00,81.3,71.4,29.68,WSW,238,0.0,1.0,72,0.00,,,0.00,Wunderground v.1.15,2013-07-22 23:39:00,
2013-07-22 18:44:00,81.1,71.6,29.68,West,269,1.0,1.0,73,0.00,,,0.00,Wunderground v.1.15,2013-07-22 23:44:00,
2013-07-22 18:49:00,80.9,71.8,29.68,WSW,240,1.0,1.0,74,0.00,,,0.00,Wunderground v.1.15,2013-07-22 23:49:00,
2013-07-22 18:54:00,80.7,71.6,29.68,SSE,166,1.0,1.0,74,0.00,,,0.00,Wunderground v.1.15,2013-07-22 23:54:00,
2013-07-22 19:04:00,80.4,71.3,29.70,South,187,2.0,2.0,74,0.00,,,0.00,Wunderground v.1.15,2013-07-23 00:04:00,
2013-07-22 19:14:00,80.3,71.6,29.71,SW,215,2.0,3.0,75,0.00,,,0.00,Wunderground v.1.15,2013-07-23 00:14:00,
2013-07-22 19:19:00,80.0,71.4,29.71,SSW,195,2.0,2.0,75,0.00,,,0.00,Wunderground v.1.15,2013-07-23 00:19:00,
2013-07-22 19:24:00,79.7,71.1,29.71,SW,225,2.0,2.0,75,0.00,,,0.00,Wunderground v.1.15,2013-07-23 00:24:00,
2013-07-22 19:29:00,79.5,70.9,29.70,West,267,2.0,2.0,75,0.00,,,0.00,Wunderground v.1.15,2013-07-23 00:29:00,
2013-07-22 19:34:00,79.2,71.0,29.71,SSW,212,2.0,2.0,76,0.00,,,0.00,Wunderground v.1.15,2013-07-23 00:34:00,
2013-07-22 19:39:00,78.9,71.1,29.70,SW,222,2.0,4.0,77,0.00,,,0.00,Wunderground v.1.15,2013-07-23 00:39:00,
2013-07-22 19:49:00,76.7,70.8,29.68,WSW,238,3.0,4.0,82,0.18,,,0.05,Wunderground v.1.15,2013-07-23 00:49:00,
2013-07-22 19:59:00,75.1,68.9,29.67,WSW,246,4.0,4.0,81,0.05,,,0.05,Wunderground v.1.15,2013-07-23 00:59:00,
2013-07-22 20:09:00,74.2,69.1,29.66,SSW,198,4.0,6.0,84,0.00,,,0.05,Wunderground v.1.15,2013-07-23 01:09:00,
2013-07-22 20:14:00,74.2,69.1,29.66,WSW,246,4.0,6.0,84,0.00,,,0.05,Wunderground v.1.15,2013-07-23 01:14:00,
2013-07-22 20:24:00,74.6,69.1,29.65,SW,215,4.0,8.0,83,0.00,,,0.05,Wunderground v.1.15,2013-07-23 01:24:00,
2013-07-22 20:29:00,74.9,69.4,29.63,ENE,70,6.0,6.0,83,0.00,,,0.06,Wunderground v.1.15,2013-07-23 01:29:00,
2013-07-22 20:34:00,74.7,69.2,29.58,SSE,165,6.0,6.0,83,0.00,,,0.06,Wunderground v.1.15,2013-07-23 01:34:00,
2013-07-22 20:44:00,72.5,65.6,29.61,WNW,291,6.0,6.0,79,0.00,,,0.06,Wunderground v.1.15,2013-07-23 01:44:00,
2013-07-22 20:49:00,71.1,64.3,29.65,SSW,213,7.0,7.0,79,0.00,,,0.06,Wunderground v.1.15,2013-07-23 01:49:00,
2013-07-22 21:00:00,71.7,61.8,29.65,SW,219,7.0,9.0,71,0.00,,,0.06,Wunderground v.1.15,2013-07-23 02:00:00,
2013-07-22 21:10:00,72.1,61.8,29.63,SE,131,7.0,7.0,70,0.00,,,0.06,Wunderground v.1.15,2013-07-23 02:10:00,
2013-07-22 21:15:00,71.8,61.9,29.64,WSW,238,6.0,7.0,71,0.00,,,0.06,Wunderground v.1.15,2013-07-23 02:15:00,
2013-07-22 21:20:00,71.3,62.6,29.65,SW,219,5.0,5.0,74,0.00,,,0.06,Wunderground v.1.15,2013-07-23 02:20:00,
2013-07-22 21:25:00,71.0,63.1,29.64,SW,226,5.0,5.0,76,0.00,,,0.06,Wunderground v.1.15,2013-07-23 02:25:00,
2013-07-22 21:30:00,70.9,63.3,29.62,NNW,336,4.0,5.0,77,0.00,,,0.06,Wunderground v.1.15,2013-07-23 02:30:00,
2013-07-22 21:35:00,70.8,63.6,29.60,SSW,195,3.0,6.0,78,0.00,,,0.06,Wunderground v.1.15,2013-07-23 02:35:00,
2013-07-22 21:40:00,71.0,63.8,29.58,South,184,4.0,5.0,78,0.00,,,0.06,Wunderground v.1.15,2013-07-23 02:40:00,
2013-07-22 21:50:00,72.5,63.4,29.64,NNW,347,4.0,9.0,73,0.00,,,0.06,Wunderground v.1.15,2013-07-23 02:50:00,
2013-07-22 22:00:00,72.1,63.7,29.66,West,277,5.0,9.0,75,0.00,,,0.06,Wunderground v.1.15,2013-07-23 03:00:00,
2013-07-22 22:10:00,71.7,63.4,29.70,West,276,4.0,5.0,75,0.00,,,0.06,Wunderground v.1.15,2013-07-23 03:10:00,
2013-07-22 22:15:00,71.1,63.5,29.70,NNE,12,3.0,5.0,77,0.00,,,0.06,Wunderground v.1.15,2013-07-23 03:15:00,
2013-07-22 22:20:00,70.7,63.5,29.70,ENE,74,1.0,1.0,78,0.00,,,0.06,Wunderground v.1.15,2013-07-23 03:20:00,
2013-07-22 22:30:00,70.0,63.9,29.70,SW,236,0.0,0.0,81,0.00,,,0.06,Wunderground v.1.15,2013-07-23 03:30:00,
2013-07-22 22:35:00,69.7,63.6,29.70,SW,236,0.0,0.0,81,0.00,,,0.06,Wunderground v.1.15,2013-07-23 03:35:00,
2013-07-22 22:44:00,69.2,63.8,29.70,West,264,0.0,0.0,83,0.00,,,0.06,Wunderground v.1.15,2013-07-23 03:44:00,
2013-07-22 22:49:00,68.9,63.9,29.71,SSE,168,0.0,0.0,84,0.00,,,0.06,Wunderground v.1.15,2013-07-23 03:49:00,
2013-07-22 22:54:00,68.7,64.0,29.71,SSE,167,0.0,0.0,85,0.00,,,0.06,Wunderground v.1.15,2013-07-23 03:54:00,
2013-07-22 23:00:00,68.4,64.0,29.71,SSE,167,0.0,0.0,86,0.00,,,0.06,Wunderground v.1.15,2013-07-23 04:00:00,
2013-07-22 23:04:00,68.3,63.9,29.71,SSE,168,0.0,0.0,86,0.00,,,0.06,Wunderground v.1.15,2013-07-23 04:04:00,
2013-07-22 23:09:00,68.1,63.8,29.70,SSE,168,0.0,0.0,86,0.00,,,0.06,Wunderground v.1.15,2013-07-23 04:09:00,
2013-07-22 23:14:00,68.1,63.8,29.70,SSE,167,0.0,0.0,86,0.00,,,0.06,Wunderground v.1.15,2013-07-23 04:14:00,
2013-07-22 23:24:00,68.3,63.9,29.71,NW,326,0.0,0.0,86,0.00,,,0.06,Wunderground v.1.15,2013-07-23 04:24:00,
2013-07-22 23:29:00,68.2,63.9,29.71,NW,309,0.0,0.0,86,0.00,,,0.06,Wunderground v.1.15,2013-07-23 04:29:00,
2013-07-22 23:39:00,67.9,63.9,29.71,WNW,291,0.0,0.0,87,0.00,,,0.06,Wunderground v.1.15,2013-07-23 04:39:00,
2013-07-22 23:44:00,68.0,63.3,29.71,SW,215,0.0,1.0,85,0.00,,,0.06,Wunderground v.1.15,2013-07-23 04:44:00,
2013-07-22 23:49:00,68.7,63.3,29.71,NW,326,1.0,1.0,83,0.00,,,0.06,Wunderground v.1.15,2013-07-23 04:49:00,
2013-07-22 23:54:00,69.3,63.2,29.71,SW,218,1.0,1.0,81,0.00,,,0.06,Wunderground v.1.15,2013-07-23 04:54:00,